Terminal Aerodrome Forecast
Issued by NWS Sioux Falls, SD

Home | Current Version | Previous Version | Text Only | Print | Product List | Glossary Off
Versions: 1 2 3 4 5 6 7 8 9 10 11 12 13 14 15 16 17 18 19 20 21 22 23 24 25 26

000
FTUS43 KFSD 160209 AAA
TAFSUX
TAF AMD
KSUX 160209Z 1602/1624 33028G35KT 4SM -SN BR OVC015
     FM160500 33026G35KT P6SM OVC012
     FM161200 32017G27KT P6SM OVC015
     FM161800 33014KT P6SM SCT015=

USA.gov is the U.S. government's official web portal to all federal, state and local government web resources and services.